sensor_id;sensor_type;location;lat;lon;timestamp;temperature;humidity
68248;SHT30;55064;49.636;12.164;2022-12-07T00:01:23;1.87;97.84
68248;SHT30;55064;49.636;12.164;2022-12-07T00:03:51;1.87;98.02
68248;SHT30;55064;49.636;12.164;2022-12-07T00:06:18;1.87;97.98
68248;SHT30;55064;49.636;12.164;2022-12-07T00:08:44;1.91;97.98
68248;SHT30;55064;49.636;12.164;2022-12-07T00:11:17;1.88;98.06
68248;SHT30;55064;49.636;12.164;2022-12-07T00:13:50;1.96;97.68
68248;SHT30;55064;49.636;12.164;2022-12-07T00:16:18;1.90;98.04
68248;SHT30;55064;49.636;12.164;2022-12-07T00:18:46;1.86;98.19
68248;SHT30;55064;49.636;12.164;2022-12-07T00:21:19;1.83;98.61
68248;SHT30;55064;49.636;12.164;2022-12-07T00:23:48;1.81;98.54
68248;SHT30;55064;49.636;12.164;2022-12-07T00:28:47;1.77;98.70
68248;SHT30;55064;49.636;12.164;2022-12-07T00:31:16;1.81;98.98
68248;SHT30;55064;49.636;12.164;2022-12-07T00:33:42;1.83;99.04
68248;SHT30;55064;49.636;12.164;2022-12-07T00:36:10;1.83;99.15
68248;SHT30;55064;49.636;12.164;2022-12-07T00:38:39;1.83;99.08
68248;SHT30;55064;49.636;12.164;2022-12-07T00:41:11;1.84;98.80
68248;SHT30;55064;49.636;12.164;2022-12-07T00:43:37;1.81;98.77
68248;SHT30;55064;49.636;12.164;2022-12-07T00:46:05;1.80;98.88
68248;SHT30;55064;49.636;12.164;2022-12-07T00:48:33;1.74;98.93
68248;SHT30;55064;49.636;12.164;2022-12-07T00:50:58;1.74;98.89
68248;SHT30;55064;49.636;12.164;2022-12-07T00:53:27;1.70;99.08
68248;SHT30;55064;49.636;12.164;2022-12-07T00:55:53;1.69;99.07
68248;SHT30;55064;49.636;12.164;2022-12-07T00:58:19;1.66;99.25
68248;SHT30;55064;49.636;12.164;2022-12-07T01:00:48;1.55;99.54
68248;SHT30;55064;49.636;12.164;2022-12-07T01:03:17;1.55;99.51
68248;SHT30;55064;49.636;12.164;2022-12-07T01:05:51;1.59;99.27
68248;SHT30;55064;49.636;12.164;2022-12-07T01:08:16;1.60;99.39
68248;SHT30;55064;49.636;12.164;2022-12-07T01:10:42;1.62;99.57
68248;SHT30;55064;49.636;12.164;2022-12-07T01:13:07;1.58;99.65
68248;SHT30;55064;49.636;12.164;2022-12-07T01:15:32;1.60;99.60
68248;SHT30;55064;49.636;12.164;2022-12-07T01:17:58;1.58;99.63
68248;SHT30;55064;49.636;12.164;2022-12-07T01:20:28;1.55;99.76
68248;SHT30;55064;49.636;12.164;2022-12-07T01:22:55;1.58;99.86
68248;SHT30;55064;49.636;12.164;2022-12-07T01:25:21;1.60;99.69
68248;SHT30;55064;49.636;12.164;2022-12-07T01:27:52;1.59;99.68
68248;SHT30;55064;49.636;12.164;2022-12-07T01:30:19;1.58;99.79
68248;SHT30;55064;49.636;12.164;2022-12-07T01:32:45;1.59;99.53
68248;SHT30;55064;49.636;12.164;2022-12-07T01:35:10;1.62;99.29
68248;SHT30;55064;49.636;12.164;2022-12-07T01:37:37;1.59;99.48
68248;SHT30;55064;49.636;12.164;2022-12-07T01:40:04;1.63;99.24
68248;SHT30;55064;49.636;12.164;2022-12-07T01:42:37;1.63;99.15
68248;SHT30;55064;49.636;12.164;2022-12-07T01:47:51;1.63;99.11
68248;SHT30;55064;49.636;12.164;2022-12-07T01:50:20;1.62;99.12
68248;SHT30;55064;49.636;12.164;2022-12-07T01:52:49;1.59;99.06
68248;SHT30;55064;49.636;12.164;2022-12-07T01:55:21;1.58;99.17
68248;SHT30;55064;49.636;12.164;2022-12-07T01:57:52;1.58;99.25
68248;SHT30;55064;49.636;12.164;2022-12-07T02:00:20;1.60;99.23
68248;SHT30;55064;49.636;12.164;2022-12-07T02:02:49;1.60;99.04
68248;SHT30;55064;49.636;12.164;2022-12-07T02:05:25;1.63;99.00
68248;SHT30;55064;49.636;12.164;2022-12-07T02:07:53;1.63;99.06
68248;SHT30;55064;49.636;12.164;2022-12-07T02:10:22;1.64;99.11
68248;SHT30;55064;49.636;12.164;2022-12-07T02:32:17;0.83;98.89
68248;SHT30;55064;49.636;12.164;2022-12-07T02:34:57;0.77;98.66
68248;SHT30;55064;49.636;12.164;2022-12-07T02:40:24;0.80;98.92
68248;SHT30;55064;49.636;12.164;2022-12-07T02:43:02;0.84;98.41
68248;SHT30;55064;49.636;12.164;2022-12-07T02:45:29;0.93;98.37
68248;SHT30;55064;49.636;12.164;2022-12-07T02:47:58;0.94;98.03
68248;SHT30;55064;49.636;12.164;2022-12-07T02:50:28;0.93;97.65
68248;SHT30;55064;49.636;12.164;2022-12-07T02:52:54;0.97;96.95
68248;SHT30;55064;49.636;12.164;2022-12-07T02:55:23;1.03;97.05
68248;SHT30;55064;49.636;12.164;2022-12-07T03:00:23;1.05;94.90
68248;SHT30;55064;49.636;12.164;2022-12-07T03:03:00;1.07;94.76
68248;SHT30;55064;49.636;12.164;2022-12-07T03:05:55;1.03;95.16
68248;SHT30;55064;49.636;12.164;2022-12-07T03:08:48;1.07;95.30
68248;SHT30;55064;49.636;12.164;2022-12-07T03:11:26;1.01;95.50
68248;SHT30;55064;49.636;12.164;2022-12-07T03:14:00;0.97;96.11
68248;SHT30;55064;49.636;12.164;2022-12-07T03:16:35;0.93;96.37
68248;SHT30;55064;49.636;12.164;2022-12-07T03:19:13;0.93;96.74
68248;SHT30;55064;49.636;12.164;2022-12-07T03:21:44;0.87;96.94
68248;SHT30;55064;49.636;12.164;2022-12-07T03:24:14;0.80;96.84
68248;SHT30;55064;49.636;12.164;2022-12-07T03:26:51;0.80;97.00
68248;SHT30;55064;49.636;12.164;2022-12-07T03:29:40;0.76;97.26
68248;SHT30;55064;49.636;12.164;2022-12-07T03:32:19;0.75;97.25
68248;SHT30;55064;49.636;12.164;2022-12-07T03:34:52;0.70;97.57
68248;SHT30;55064;49.636;12.164;2022-12-07T03:37:34;0.60;98.07
68248;SHT30;55064;49.636;12.164;2022-12-07T03:42:38;0.65;98.63
68248;SHT30;55064;49.636;12.164;2022-12-07T03:45:04;0.66;98.73
68248;SHT30;55064;49.636;12.164;2022-12-07T03:47:33;0.69;98.69
68248;SHT30;55064;49.636;12.164;2022-12-07T03:50:15;0.65;99.00
68248;SHT30;55064;49.636;12.164;2022-12-07T03:53:13;0.60;99.06
68248;SHT30;55064;49.636;12.164;2022-12-07T03:55:42;0.59;99.12
68248;SHT30;55064;49.636;12.164;2022-12-07T03:58:15;0.58;99.18
68248;SHT30;55064;49.636;12.164;2022-12-07T04:00:42;0.58;99.10
68248;SHT30;55064;49.636;12.164;2022-12-07T04:03:07;0.52;99.19
68248;SHT30;55064;49.636;12.164;2022-12-07T04:05:37;0.53;99.23
68248;SHT30;55064;49.636;12.164;2022-12-07T04:08:05;0.50;99.24
68248;SHT30;55064;49.636;12.164;2022-12-07T04:10:34;0.44;99.31
68248;SHT30;55064;49.636;12.164;2022-12-07T04:13:00;0.42;99.36
68248;SHT30;55064;49.636;12.164;2022-12-07T04:15:26;0.45;99.33
68248;SHT30;55064;49.636;12.164;2022-12-07T04:17:51;0.52;99.19
68248;SHT30;55064;49.636;12.164;2022-12-07T04:20:18;0.50;98.91
68248;SHT30;55064;49.636;12.164;2022-12-07T04:22:43;0.39;99.03
68248;SHT30;55064;49.636;12.164;2022-12-07T04:25:11;0.28;98.92
68248;SHT30;55064;49.636;12.164;2022-12-07T04:27:36;0.24;99.03
68248;SHT30;55064;49.636;12.164;2022-12-07T04:30:02;0.12;99.36
68248;SHT30;55064;49.636;12.164;2022-12-07T04:32:29;0.04;99.34
68248;SHT30;55064;49.636;12.164;2022-12-07T04:34:54;0.00;99.36
68248;SHT30;55064;49.636;12.164;2022-12-07T04:37:20;-0.09;99.43
68248;SHT30;55064;49.636;12.164;2022-12-07T04:39:50;-0.09;99.64
68248;SHT30;55064;49.636;12.164;2022-12-07T04:42:18;-0.07;99.80
68248;SHT30;55064;49.636;12.164;2022-12-07T04:44:44;-0.11;99.74
68248;SHT30;55064;49.636;12.164;2022-12-07T04:47:14;-0.18;99.59
68248;SHT30;55064;49.636;12.164;2022-12-07T04:49:45;-0.11;99.68
68248;SHT30;55064;49.636;12.164;2022-12-07T04:52:23;-0.16;99.75
68248;SHT30;55064;49.636;12.164;2022-12-07T04:54:52;-0.17;99.80
68248;SHT30;55064;49.636;12.164;2022-12-07T04:57:20;-0.18;99.78
68248;SHT30;55064;49.636;12.164;2022-12-07T04:59:48;-0.14;99.94
68248;SHT30;55064;49.636;12.164;2022-12-07T05:02:13;-0.14;99.93
68248;SHT30;55064;49.636;12.164;2022-12-07T05:04:41;-0.10;99.96
68248;SHT30;55064;49.636;12.164;2022-12-07T05:07:06;-0.02;99.91
68248;SHT30;55064;49.636;12.164;2022-12-07T05:09:32;0.03;99.97
68248;SHT30;55064;49.636;12.164;2022-12-07T05:11:57;0.04;99.96
68248;SHT30;55064;49.636;12.164;2022-12-07T05:14:23;0.04;99.99
68248;SHT30;55064;49.636;12.164;2022-12-07T05:16:51;0.05;99.99
68248;SHT30;55064;49.636;12.164;2022-12-07T05:19:19;0.11;99.85
68248;SHT30;55064;49.636;12.164;2022-12-07T05:21:45;0.17;99.86
68248;SHT30;55064;49.636;12.164;2022-12-07T05:24:14;0.17;99.99
68248;SHT30;55064;49.636;12.164;2022-12-07T05:26:46;0.17;99.99
68248;SHT30;55064;49.636;12.164;2022-12-07T05:29:21;0.19;99.99
68248;SHT30;55064;49.636;12.164;2022-12-07T05:31:54;0.26;99.99
68248;SHT30;55064;49.636;12.164;2022-12-07T05:34:20;0.25;99.99
68248;SHT30;55064;49.636;12.164;2022-12-07T05:36:46;0.32;99.92
68248;SHT30;55064;49.636;12.164;2022-12-07T05:39:11;0.33;99.99
68248;SHT30;55064;49.636;12.164;2022-12-07T05:41:37;0.38;99.68
68248;SHT30;55064;49.636;12.164;2022-12-07T05:44:24;0.44;99.47
68248;SHT30;55064;49.636;12.164;2022-12-07T05:46:49;0.42;99.45
68248;SHT30;55064;49.636;12.164;2022-12-07T05:49:15;0.46;99.31
68248;SHT30;55064;49.636;12.164;2022-12-07T05:51:42;0.48;99.28
68248;SHT30;55064;49.636;12.164;2022-12-07T05:54:10;0.44;99.17
68248;SHT30;55064;49.636;12.164;2022-12-07T05:56:40;0.45;99.32
68248;SHT30;55064;49.636;12.164;2022-12-07T05:59:10;0.45;99.31
68248;SHT30;55064;49.636;12.164;2022-12-07T06:01:49;0.42;98.69
68248;SHT30;55064;49.636;12.164;2022-12-07T06:04:20;0.45;99.14
68248;SHT30;55064;49.636;12.164;2022-12-07T06:06:48;0.44;99.19
68248;SHT30;55064;49.636;12.164;2022-12-07T06:09:17;0.46;99.04
68248;SHT30;55064;49.636;12.164;2022-12-07T06:11:43;0.49;98.94
68248;SHT30;55064;49.636;12.164;2022-12-07T06:14:30;0.49;98.91
68248;SHT30;55064;49.636;12.164;2022-12-07T06:16:58;0.44;99.07
68248;SHT30;55064;49.636;12.164;2022-12-07T06:19:24;0.41;99.15
68248;SHT30;55064;49.636;12.164;2022-12-07T06:21:49;0.41;99.33
68248;SHT30;55064;49.636;12.164;2022-12-07T06:24:20;0.38;99.41
68248;SHT30;55064;49.636;12.164;2022-12-07T06:26:46;0.38;99.50
68248;SHT30;55064;49.636;12.164;2022-12-07T06:29:14;0.39;99.71
68248;SHT30;55064;49.636;12.164;2022-12-07T06:31:45;0.39;99.76
68248;SHT30;55064;49.636;12.164;2022-12-07T06:34:12;0.42;99.69
68248;SHT30;55064;49.636;12.164;2022-12-07T06:36:41;0.44;99.43
68248;SHT30;55064;49.636;12.164;2022-12-07T06:39:07;0.39;99.64
68248;SHT30;55064;49.636;12.164;2022-12-07T06:41:38;0.42;99.63
68248;SHT30;55064;49.636;12.164;2022-12-07T06:44:05;0.42;99.42
68248;SHT30;55064;49.636;12.164;2022-12-07T06:46:33;0.41;99.51
68248;SHT30;55064;49.636;12.164;2022-12-07T06:49:00;0.45;99.36
68248;SHT30;55064;49.636;12.164;2022-12-07T06:51:25;0.48;99.34
68248;SHT30;55064;49.636;12.164;2022-12-07T06:53:52;0.46;99.32
68248;SHT30;55064;49.636;12.164;2022-12-07T06:56:19;0.46;99.54
68248;SHT30;55064;49.636;12.164;2022-12-07T06:58:50;0.49;99.44
68248;SHT30;55064;49.636;12.164;2022-12-07T07:01:40;0.55;99.33
68248;SHT30;55064;49.636;12.164;2022-12-07T07:04:06;0.58;99.36
68248;SHT30;55064;49.636;12.164;2022-12-07T07:06:34;0.59;99.15
68248;SHT30;55064;49.636;12.164;2022-12-07T07:08:59;0.62;99.15
68248;SHT30;55064;49.636;12.164;2022-12-07T07:11:25;0.59;99.00
68248;SHT30;55064;49.636;12.164;2022-12-07T07:13:52;0.62;99.04
68248;SHT30;55064;49.636;12.164;2022-12-07T07:16:19;0.65;98.88
68248;SHT30;55064;49.636;12.164;2022-12-07T07:18:48;0.66;98.77
68248;SHT30;55064;49.636;12.164;2022-12-07T07:21:14;0.69;98.55
68248;SHT30;55064;49.636;12.164;2022-12-07T07:23:39;0.69;98.19
68248;SHT30;55064;49.636;12.164;2022-12-07T07:26:05;0.75;98.02
68248;SHT30;55064;49.636;12.164;2022-12-07T07:28:33;0.75;97.80
68248;SHT30;55064;49.636;12.164;2022-12-07T07:31:02;0.79;97.93
68248;SHT30;55064;49.636;12.164;2022-12-07T07:33:30;0.77;97.73
68248;SHT30;55064;49.636;12.164;2022-12-07T07:35:55;0.84;97.92
68248;SHT30;55064;49.636;12.164;2022-12-07T07:38:21;0.80;97.55
68248;SHT30;55064;49.636;12.164;2022-12-07T07:40:46;0.80;97.85
68248;SHT30;55064;49.636;12.164;2022-12-07T07:43:14;0.75;98.39
68248;SHT30;55064;49.636;12.164;2022-12-07T07:45:39;0.75;98.61
68248;SHT30;55064;49.636;12.164;2022-12-07T07:48:08;0.73;98.51
68248;SHT30;55064;49.636;12.164;2022-12-07T07:50:36;0.75;98.51
68248;SHT30;55064;49.636;12.164;2022-12-07T07:53:01;0.73;98.23
68248;SHT30;55064;49.636;12.164;2022-12-07T07:55:29;0.79;98.48
68248;SHT30;55064;49.636;12.164;2022-12-07T07:57:54;0.76;98.54
68248;SHT30;55064;49.636;12.164;2022-12-07T08:00:22;0.76;98.68
68248;SHT30;55064;49.636;12.164;2022-12-07T08:02:48;0.73;98.86
68248;SHT30;55064;49.636;12.164;2022-12-07T08:05:15;0.75;98.88
68248;SHT30;55064;49.636;12.164;2022-12-07T08:07:41;0.77;98.74
68248;SHT30;55064;49.636;12.164;2022-12-07T08:10:08;0.81;98.71
68248;SHT30;55064;49.636;12.164;2022-12-07T08:12:36;0.83;98.58
68248;SHT30;55064;49.636;12.164;2022-12-07T08:15:08;0.87;98.26
68248;SHT30;55064;49.636;12.164;2022-12-07T08:17:35;0.87;98.26
68248;SHT30;55064;49.636;12.164;2022-12-07T08:20:02;0.86;98.27
68248;SHT30;55064;49.636;12.164;2022-12-07T08:22:27;0.86;98.33
68248;SHT30;55064;49.636;12.164;2022-12-07T08:24:53;0.87;98.22
68248;SHT30;55064;49.636;12.164;2022-12-07T08:27:18;0.86;98.01
68248;SHT30;55064;49.636;12.164;2022-12-07T08:29:48;0.88;98.08
68248;SHT30;55064;49.636;12.164;2022-12-07T08:32:17;0.90;97.35
68248;SHT30;55064;49.636;12.164;2022-12-07T08:34:42;0.91;97.64
68248;SHT30;55064;49.636;12.164;2022-12-07T08:37:10;0.91;97.70
68248;SHT30;55064;49.636;12.164;2022-12-07T08:39:40;0.90;97.53
68248;SHT30;55064;49.636;12.164;2022-12-07T08:42:06;0.94;97.54
68248;SHT30;55064;49.636;12.164;2022-12-07T08:44:32;0.97;97.60
68248;SHT30;55064;49.636;12.164;2022-12-07T08:47:00;1.01;97.28
68248;SHT30;55064;49.636;12.164;2022-12-07T08:49:39;1.01;97.16
68248;SHT30;55064;49.636;12.164;2022-12-07T08:52:05;1.00;97.38
68248;SHT30;55064;49.636;12.164;2022-12-07T08:54:34;1.03;97.39
68248;SHT30;55064;49.636;12.164;2022-12-07T08:57:00;1.05;97.21
68248;SHT30;55064;49.636;12.164;2022-12-07T08:59:27;1.05;97.21
68248;SHT30;55064;49.636;12.164;2022-12-07T09:01:53;1.09;97.32
68248;SHT30;55064;49.636;12.164;2022-12-07T09:04:19;1.13;97.22
68248;SHT30;55064;49.636;12.164;2022-12-07T09:06:45;1.11;97.20
68248;SHT30;55064;49.636;12.164;2022-12-07T09:09:15;1.11;97.22
68248;SHT30;55064;49.636;12.164;2022-12-07T09:11:46;1.15;97.34
68248;SHT30;55064;49.636;12.164;2022-12-07T09:14:12;1.14;97.26
68248;SHT30;55064;49.636;12.164;2022-12-07T09:16:40;1.17;97.30
68248;SHT30;55064;49.636;12.164;2022-12-07T09:19:07;1.21;97.36
68248;SHT30;55064;49.636;12.164;2022-12-07T09:21:34;1.20;97.21
68248;SHT30;55064;49.636;12.164;2022-12-07T09:24:00;1.22;96.90
68248;SHT30;55064;49.636;12.164;2022-12-07T09:26:32;1.24;97.06
68248;SHT30;55064;49.636;12.164;2022-12-07T09:29:01;1.30;97.02
68248;SHT30;55064;49.636;12.164;2022-12-07T09:31:32;1.32;96.89
68248;SHT30;55064;49.636;12.164;2022-12-07T09:33:59;1.28;96.87
68248;SHT30;55064;49.636;12.164;2022-12-07T09:36:30;1.34;97.08
68248;SHT30;55064;49.636;12.164;2022-12-07T09:38:58;1.35;97.03
68248;SHT30;55064;49.636;12.164;2022-12-07T09:41:24;1.35;97.19
68248;SHT30;55064;49.636;12.164;2022-12-07T09:43:57;1.36;97.19
68248;SHT30;55064;49.636;12.164;2022-12-07T09:46:38;1.38;97.30
68248;SHT30;55064;49.636;12.164;2022-12-07T09:49:13;1.39;97.60
68248;SHT30;55064;49.636;12.164;2022-12-07T09:51:40;1.41;97.55
68248;SHT30;55064;49.636;12.164;2022-12-07T09:54:17;1.43;97.32
68248;SHT30;55064;49.636;12.164;2022-12-07T09:56:43;1.46;97.48
68248;SHT30;55064;49.636;12.164;2022-12-07T09:59:26;1.52;97.45
68248;SHT30;55064;49.636;12.164;2022-12-07T10:04:59;1.53;97.27
68248;SHT30;55064;49.636;12.164;2022-12-07T10:07:25;1.56;97.36
68248;SHT30;55064;49.636;12.164;2022-12-07T10:09:50;1.55;97.52
68248;SHT30;55064;49.636;12.164;2022-12-07T10:12:16;1.56;97.59
68248;SHT30;55064;49.636;12.164;2022-12-07T10:15:02;1.60;97.24
68248;SHT30;55064;49.636;12.164;2022-12-07T10:17:38;1.66;97.41
68248;SHT30;55064;49.636;12.164;2022-12-07T10:22:54;1.69;97.66
68248;SHT30;55064;49.636;12.164;2022-12-07T10:25:22;1.67;97.71
68248;SHT30;55064;49.636;12.164;2022-12-07T10:28:10;1.67;97.72
68248;SHT30;55064;49.636;12.164;2022-12-07T10:35:57;1.73;97.69
68248;SHT30;55064;49.636;12.164;2022-12-07T10:38:25;1.73;97.62
68248;SHT30;55064;49.636;12.164;2022-12-07T10:41:06;1.79;97.63
68248;SHT30;55064;49.636;12.164;2022-12-07T10:43:34;1.77;97.79
68248;SHT30;55064;49.636;12.164;2022-12-07T10:57:16;1.86;97.79
68248;SHT30;55064;49.636;12.164;2022-12-07T11:00:03;1.87;97.82
68248;SHT30;55064;49.636;12.164;2022-12-07T11:08:04;1.87;97.76
68248;SHT30;55064;49.636;12.164;2022-12-07T11:21:22;1.88;97.84
68248;SHT30;55064;49.636;12.164;2022-12-07T11:24:18;1.88;97.74
68248;SHT30;55064;49.636;12.164;2022-12-07T11:30:12;1.97;97.58
68248;SHT30;55064;49.636;12.164;2022-12-07T11:32:49;1.98;97.59
68248;SHT30;55064;49.636;12.164;2022-12-07T11:37:49;1.98;97.65
68248;SHT30;55064;49.636;12.164;2022-12-07T11:40:27;1.98;97.69
68248;SHT30;55064;49.636;12.164;2022-12-07T11:45:48;1.96;97.73
68248;SHT30;55064;49.636;12.164;2022-12-07T11:48:37;1.97;97.68
68248;SHT30;55064;49.636;12.164;2022-12-07T11:51:07;1.97;97.83
68248;SHT30;55064;49.636;12.164;2022-12-07T11:53:54;2.01;98.00
68248;SHT30;55064;49.636;12.164;2022-12-07T11:56:25;2.00;97.60
68248;SHT30;55064;49.636;12.164;2022-12-07T11:58:58;2.06;97.76
68248;SHT30;55064;49.636;12.164;2022-12-07T12:06:39;2.10;97.61
68248;SHT30;55064;49.636;12.164;2022-12-07T12:09:15;2.15;96.99
68248;SHT30;55064;49.636;12.164;2022-12-07T12:25:54;2.15;97.69
68248;SHT30;55064;49.636;12.164;2022-12-07T12:28:30;2.15;97.80
68248;SHT30;55064;49.636;12.164;2022-12-07T12:33:32;2.14;97.34
68248;SHT30;55064;49.636;12.164;2022-12-07T12:46:59;2.14;97.71
68248;SHT30;55064;49.636;12.164;2022-12-07T13:00:45;2.14;98.08
68248;SHT30;55064;49.636;12.164;2022-12-07T13:03:28;2.14;98.00
68248;SHT30;55064;49.636;12.164;2022-12-07T13:06:20;2.18;97.92
68248;SHT30;55064;49.636;12.164;2022-12-07T13:08:58;2.17;98.01
68248;SHT30;55064;49.636;12.164;2022-12-07T13:11:31;2.17;98.01
68248;SHT30;55064;49.636;12.164;2022-12-07T13:17:07;2.14;98.22
68248;SHT30;55064;49.636;12.164;2022-12-07T13:24:56;2.15;98.69
68248;SHT30;55064;49.636;12.164;2022-12-07T13:27:25;2.14;98.69
68248;SHT30;55064;49.636;12.164;2022-12-07T13:29:54;2.15;98.36
68248;SHT30;55064;49.636;12.164;2022-12-07T13:32:26;2.14;98.50
68248;SHT30;55064;49.636;12.164;2022-12-07T13:34:59;2.17;98.35
68248;SHT30;55064;49.636;12.164;2022-12-07T13:37:27;2.14;98.56
68248;SHT30;55064;49.636;12.164;2022-12-07T13:42:33;2.22;98.47
68248;SHT30;55064;49.636;12.164;2022-12-07T13:45:16;2.26;98.17
68248;SHT30;55064;49.636;12.164;2022-12-07T13:47:50;2.25;98.44
68248;SHT30;55064;49.636;12.164;2022-12-07T13:50:38;2.22;98.45
68248;SHT30;55064;49.636;12.164;2022-12-07T13:53:12;2.14;98.10
68248;SHT30;55064;49.636;12.164;2022-12-07T13:55:46;2.10;98.78
68248;SHT30;55064;49.636;12.164;2022-12-07T13:58:12;2.08;99.09
68248;SHT30;55064;49.636;12.164;2022-12-07T14:00:40;2.07;99.31
68248;SHT30;55064;49.636;12.164;2022-12-07T14:05:43;2.13;99.43
68248;SHT30;55064;49.636;12.164;2022-12-07T14:10:55;2.06;99.42
68248;SHT30;55064;49.636;12.164;2022-12-07T14:18:43;2.04;98.84
68248;SHT30;55064;49.636;12.164;2022-12-07T14:21:23;2.07;99.13
68248;SHT30;55064;49.636;12.164;2022-12-07T14:24:18;2.08;99.22
68248;SHT30;55064;49.636;12.164;2022-12-07T14:26:48;2.06;98.89
68248;SHT30;55064;49.636;12.164;2022-12-07T14:31:54;2.07;98.88
68248;SHT30;55064;49.636;12.164;2022-12-07T14:34:23;2.10;99.14
68248;SHT30;55064;49.636;12.164;2022-12-07T14:36:52;2.08;99.25
68248;SHT30;55064;49.636;12.164;2022-12-07T14:39:22;2.04;99.37
68248;SHT30;55064;49.636;12.164;2022-12-07T14:41:47;2.08;98.99
68248;SHT30;55064;49.636;12.164;2022-12-07T14:44:19;2.06;98.95
68248;SHT30;55064;49.636;12.164;2022-12-07T14:46:45;2.08;99.13
68248;SHT30;55064;49.636;12.164;2022-12-07T14:49:12;2.11;99.24
68248;SHT30;55064;49.636;12.164;2022-12-07T14:51:40;2.13;99.05
68248;SHT30;55064;49.636;12.164;2022-12-07T14:54:15;2.08;98.95
68248;SHT30;55064;49.636;12.164;2022-12-07T14:56:50;2.07;99.01
68248;SHT30;55064;49.636;12.164;2022-12-07T14:59:17;2.07;99.18
68248;SHT30;55064;49.636;12.164;2022-12-07T15:01:45;2.07;98.40
68248;SHT30;55064;49.636;12.164;2022-12-07T15:04:13;2.06;98.80
68248;SHT30;55064;49.636;12.164;2022-12-07T15:06:38;2.01;98.40
68248;SHT30;55064;49.636;12.164;2022-12-07T15:09:10;1.98;98.09
68248;SHT30;55064;49.636;12.164;2022-12-07T15:11:36;2.01;98.15
68248;SHT30;55064;49.636;12.164;2022-12-07T15:14:04;2.00;98.25
68248;SHT30;55064;49.636;12.164;2022-12-07T15:16:41;1.98;97.97
68248;SHT30;55064;49.636;12.164;2022-12-07T15:19:18;1.98;98.28
68248;SHT30;55064;49.636;12.164;2022-12-07T15:21:46;1.91;98.50
68248;SHT30;55064;49.636;12.164;2022-12-07T15:24:14;1.94;98.43
68248;SHT30;55064;49.636;12.164;2022-12-07T15:26:40;1.90;98.19
68248;SHT30;55064;49.636;12.164;2022-12-07T15:29:10;1.91;98.20
68248;SHT30;55064;49.636;12.164;2022-12-07T15:31:40;1.91;98.16
68248;SHT30;55064;49.636;12.164;2022-12-07T15:34:05;1.90;97.67
68248;SHT30;55064;49.636;12.164;2022-12-07T15:36:35;1.88;97.87
68248;SHT30;55064;49.636;12.164;2022-12-07T15:39:05;1.84;98.16
68248;SHT30;55064;49.636;12.164;2022-12-07T15:41:30;1.91;98.03
68248;SHT30;55064;49.636;12.164;2022-12-07T15:44:00;1.86;98.08
68248;SHT30;55064;49.636;12.164;2022-12-07T15:46:44;1.81;98.25
68248;SHT30;55064;49.636;12.164;2022-12-07T15:49:16;1.79;98.26
68248;SHT30;55064;49.636;12.164;2022-12-07T15:51:45;1.79;98.29
68248;SHT30;55064;49.636;12.164;2022-12-07T15:54:32;1.80;97.96
68248;SHT30;55064;49.636;12.164;2022-12-07T15:56:57;1.83;97.69
68248;SHT30;55064;49.636;12.164;2022-12-07T15:59:27;1.81;97.82
68248;SHT30;55064;49.636;12.164;2022-12-07T16:01:53;1.83;97.60
68248;SHT30;55064;49.636;12.164;2022-12-07T16:04:18;1.81;97.53
68248;SHT30;55064;49.636;12.164;2022-12-07T16:06:46;1.79;97.38
68248;SHT30;55064;49.636;12.164;2022-12-07T16:09:12;1.74;97.40
68248;SHT30;55064;49.636;12.164;2022-12-07T16:11:40;1.74;97.70
68248;SHT30;55064;49.636;12.164;2022-12-07T16:14:05;1.76;97.52
68248;SHT30;55064;49.636;12.164;2022-12-07T16:16:31;1.74;96.39
68248;SHT30;55064;49.636;12.164;2022-12-07T16:19:04;1.80;97.34
68248;SHT30;55064;49.636;12.164;2022-12-07T16:21:29;1.76;97.23
68248;SHT30;55064;49.636;12.164;2022-12-07T16:23:58;1.80;97.09
68248;SHT30;55064;49.636;12.164;2022-12-07T16:26:26;1.76;96.88
68248;SHT30;55064;49.636;12.164;2022-12-07T16:28:52;1.73;97.12
68248;SHT30;55064;49.636;12.164;2022-12-07T16:31:20;1.76;96.79
68248;SHT30;55064;49.636;12.164;2022-12-07T16:33:46;1.83;96.82
68248;SHT30;55064;49.636;12.164;2022-12-07T16:36:13;1.81;96.60
68248;SHT30;55064;49.636;12.164;2022-12-07T16:38:42;1.74;97.02
68248;SHT30;55064;49.636;12.164;2022-12-07T16:41:08;1.73;97.18
68248;SHT30;55064;49.636;12.164;2022-12-07T16:43:39;1.70;97.27
68248;SHT30;55064;49.636;12.164;2022-12-07T16:46:04;1.70;97.25
68248;SHT30;55064;49.636;12.164;2022-12-07T16:48:38;1.71;97.16
68248;SHT30;55064;49.636;12.164;2022-12-07T16:51:08;1.71;97.51
68248;SHT30;55064;49.636;12.164;2022-12-07T16:53:37;1.64;97.47
68248;SHT30;55064;49.636;12.164;2022-12-07T16:56:04;1.71;97.18
68248;SHT30;55064;49.636;12.164;2022-12-07T16:58:30;1.71;97.22
68248;SHT30;55064;49.636;12.164;2022-12-07T17:00:56;1.66;97.18
68248;SHT30;55064;49.636;12.164;2022-12-07T17:03:23;1.70;97.14
68248;SHT30;55064;49.636;12.164;2022-12-07T17:05:58;1.74;96.81
68248;SHT30;55064;49.636;12.164;2022-12-07T17:08:24;1.73;97.09
68248;SHT30;55064;49.636;12.164;2022-12-07T17:10:49;1.77;96.88
68248;SHT30;55064;49.636;12.164;2022-12-07T17:13:16;1.79;96.86
68248;SHT30;55064;49.636;12.164;2022-12-07T17:16:07;1.76;97.03
68248;SHT30;55064;49.636;12.164;2022-12-07T17:18:34;1.77;97.08
68248;SHT30;55064;49.636;12.164;2022-12-07T17:21:09;1.73;97.31
68248;SHT30;55064;49.636;12.164;2022-12-07T17:23:38;1.73;97.24
68248;SHT30;55064;49.636;12.164;2022-12-07T17:26:09;1.73;97.10
68248;SHT30;55064;49.636;12.164;2022-12-07T17:28:35;1.74;97.05
68248;SHT30;55064;49.636;12.164;2022-12-07T17:31:04;1.83;96.66
68248;SHT30;55064;49.636;12.164;2022-12-07T17:33:31;1.81;96.74
68248;SHT30;55064;49.636;12.164;2022-12-07T17:35:57;1.80;96.87
68248;SHT30;55064;49.636;12.164;2022-12-07T17:38:22;1.80;96.56
68248;SHT30;55064;49.636;12.164;2022-12-07T17:40:51;1.79;96.73
68248;SHT30;55064;49.636;12.164;2022-12-07T17:43:19;1.77;96.82
68248;SHT30;55064;49.636;12.164;2022-12-07T17:45:44;1.74;96.97
68248;SHT30;55064;49.636;12.164;2022-12-07T17:48:12;1.76;96.51
68248;SHT30;55064;49.636;12.164;2022-12-07T17:50:38;1.74;96.67
68248;SHT30;55064;49.636;12.164;2022-12-07T17:53:24;1.71;96.75
68248;SHT30;55064;49.636;12.164;2022-12-07T17:55:52;1.71;96.73
68248;SHT30;55064;49.636;12.164;2022-12-07T17:58:20;1.69;96.83
68248;SHT30;55064;49.636;12.164;2022-12-07T18:00:48;1.69;96.85
68248;SHT30;55064;49.636;12.164;2022-12-07T18:03:16;1.66;96.78
68248;SHT30;55064;49.636;12.164;2022-12-07T18:05:42;1.63;97.06
68248;SHT30;55064;49.636;12.164;2022-12-07T18:08:14;1.60;97.23
68248;SHT30;55064;49.636;12.164;2022-12-07T18:10:41;1.66;97.07
68248;SHT30;55064;49.636;12.164;2022-12-07T18:13:07;1.63;97.05
68248;SHT30;55064;49.636;12.164;2022-12-07T18:16:06;1.63;97.11